sensor_id;sensor_type;location;lat;lon;timestamp;temperature;humidity
70460;DHT22;57920;54.796;9.430;2022-09-16T00:01:12;19.30;55.40
70460;DHT22;57920;54.796;9.430;2022-09-16T00:03:38;19.30;55.40
70460;DHT22;57920;54.796;9.430;2022-09-16T00:06:05;19.30;55.30
70460;DHT22;57920;54.796;9.430;2022-09-16T00:08:31;19.30;55.30
70460;DHT22;57920;54.796;9.430;2022-09-16T00:11:00;19.30;55.40
70460;DHT22;57920;54.796;9.430;2022-09-16T00:13:26;19.30;55.30
70460;DHT22;57920;54.796;9.430;2022-09-16T00:15:52;19.30;55.30
70460;DHT22;57920;54.796;9.430;2022-09-16T00:18:18;19.30;55.30
70460;DHT22;57920;54.796;9.430;2022-09-16T00:20:50;19.30;55.30
70460;DHT22;57920;54.796;9.430;2022-09-16T00:23:16;19.30;55.30
70460;DHT22;57920;54.796;9.430;2022-09-16T00:25:42;19.30;55.30
70460;DHT22;57920;54.796;9.430;2022-09-16T00:28:07;19.30;55.30
70460;DHT22;57920;54.796;9.430;2022-09-16T00:30:33;19.30;55.30
70460;DHT22;57920;54.796;9.430;2022-09-16T00:32:59;19.30;55.30
70460;DHT22;57920;54.796;9.430;2022-09-16T00:35:24;19.20;55.20
70460;DHT22;57920;54.796;9.430;2022-09-16T00:37:50;19.20;55.30
70460;DHT22;57920;54.796;9.430;2022-09-16T00:40:15;19.30;55.20
70460;DHT22;57920;54.796;9.430;2022-09-16T00:42:41;19.20;55.30
70460;DHT22;57920;54.796;9.430;2022-09-16T00:45:18;19.20;55.20
70460;DHT22;57920;54.796;9.430;2022-09-16T00:47:51;19.20;55.20
70460;DHT22;57920;54.796;9.430;2022-09-16T00:50:42;19.20;55.20
70460;DHT22;57920;54.796;9.430;2022-09-16T00:53:19;19.20;55.20
70460;DHT22;57920;54.796;9.430;2022-09-16T00:55:47;19.20;55.20
70460;DHT22;57920;54.796;9.430;2022-09-16T00:58:18;19.20;55.20
70460;DHT22;57920;54.796;9.430;2022-09-16T01:00:46;19.20;55.10
70460;DHT22;57920;54.796;9.430;2022-09-16T01:03:12;19.20;55.20
70460;DHT22;57920;54.796;9.430;2022-09-16T01:05:37;19.20;55.20
70460;DHT22;57920;54.796;9.430;2022-09-16T01:08:03;19.20;55.10
70460;DHT22;57920;54.796;9.430;2022-09-16T01:10:29;19.20;55.10
70460;DHT22;57920;54.796;9.430;2022-09-16T01:12:58;19.20;55.10
70460;DHT22;57920;54.796;9.430;2022-09-16T01:35:02;19.20;55.00
70460;DHT22;57920;54.796;9.430;2022-09-16T01:38:09;19.20;55.00
70460;DHT22;57920;54.796;9.430;2022-09-16T01:43:51;19.20;55.00
70460;DHT22;57920;54.796;9.430;2022-09-16T01:46:23;19.20;55.00
70460;DHT22;57920;54.796;9.430;2022-09-16T01:48:55;19.20;55.00
70460;DHT22;57920;54.796;9.430;2022-09-16T01:51:32;19.20;55.00
70460;DHT22;57920;54.796;9.430;2022-09-16T01:54:19;19.20;55.00
70460;DHT22;57920;54.796;9.430;2022-09-16T01:57:12;19.10;55.00
70460;DHT22;57920;54.796;9.430;2022-09-16T02:03:18;19.10;55.00
70460;DHT22;57920;54.796;9.430;2022-09-16T02:05:58;19.10;54.90
70460;DHT22;57920;54.796;9.430;2022-09-16T02:08:42;19.10;55.00
70460;DHT22;57920;54.796;9.430;2022-09-16T02:11:12;19.10;54.90
70460;DHT22;57920;54.796;9.430;2022-09-16T02:13:41;19.10;54.90
70460;DHT22;57920;54.796;9.430;2022-09-16T02:16:15;19.10;55.00
70460;DHT22;57920;54.796;9.430;2022-09-16T02:18:44;19.10;55.00
70460;DHT22;57920;54.796;9.430;2022-09-16T02:21:15;19.10;55.00
70460;DHT22;57920;54.796;9.430;2022-09-16T02:23:45;19.10;55.00
70460;DHT22;57920;54.796;9.430;2022-09-16T02:26:16;19.10;55.00
70460;DHT22;57920;54.796;9.430;2022-09-16T02:28:46;19.10;55.00
70460;DHT22;57920;54.796;9.430;2022-09-16T02:31:12;19.10;55.00
70460;DHT22;57920;54.796;9.430;2022-09-16T02:33:56;19.10;55.00
70460;DHT22;57920;54.796;9.430;2022-09-16T02:36:25;19.10;55.00
70460;DHT22;57920;54.796;9.430;2022-09-16T02:39:09;19.10;55.00
70460;DHT22;57920;54.796;9.430;2022-09-16T02:41:37;19.10;55.00
70460;DHT22;57920;54.796;9.430;2022-09-16T02:44:04;19.10;55.00
70460;DHT22;57920;54.796;9.430;2022-09-16T02:46:54;19.10;55.00
70460;DHT22;57920;54.796;9.430;2022-09-16T02:54:48;19.10;55.00
70460;DHT22;57920;54.796;9.430;2022-09-16T02:57:17;19.10;55.00
70460;DHT22;57920;54.796;9.430;2022-09-16T02:59:43;19.10;55.00
70460;DHT22;57920;54.796;9.430;2022-09-16T03:02:09;19.10;54.90
70460;DHT22;57920;54.796;9.430;2022-09-16T03:04:35;19.10;55.00
70460;DHT22;57920;54.796;9.430;2022-09-16T03:07:03;19.10;55.00
70460;DHT22;57920;54.796;9.430;2022-09-16T03:09:30;19.10;55.00
70460;DHT22;57920;54.796;9.430;2022-09-16T03:12:08;19.10;55.00
70460;DHT22;57920;54.796;9.430;2022-09-16T03:15:15;19.10;55.00
70460;DHT22;57920;54.796;9.430;2022-09-16T03:23:40;19.10;55.00
70460;DHT22;57920;54.796;9.430;2022-09-16T03:26:49;19.10;55.00
70460;DHT22;57920;54.796;9.430;2022-09-16T03:29:26;19.10;55.00
70460;DHT22;57920;54.796;9.430;2022-09-16T03:31:56;19.10;55.00
70460;DHT22;57920;54.796;9.430;2022-09-16T03:34:26;19.10;55.00
70460;DHT22;57920;54.796;9.430;2022-09-16T03:37:00;19.10;55.00
70460;DHT22;57920;54.796;9.430;2022-09-16T03:39:28;19.10;55.00
70460;DHT22;57920;54.796;9.430;2022-09-16T03:41:54;19.10;55.10
70460;DHT22;57920;54.796;9.430;2022-09-16T03:44:34;19.10;55.00
70460;DHT22;57920;54.796;9.430;2022-09-16T03:47:00;19.10;55.10
70460;DHT22;57920;54.796;9.430;2022-09-16T03:49:26;19.10;55.00
70460;DHT22;57920;54.796;9.430;2022-09-16T03:51:51;19.10;55.00
70460;DHT22;57920;54.796;9.430;2022-09-16T03:54:17;19.10;55.00
70460;DHT22;57920;54.796;9.430;2022-09-16T03:56:42;19.10;55.00
70460;DHT22;57920;54.796;9.430;2022-09-16T03:59:08;19.10;55.00
70460;DHT22;57920;54.796;9.430;2022-09-16T04:01:33;19.10;55.00
70460;DHT22;57920;54.796;9.430;2022-09-16T04:03:59;19.10;55.00
70460;DHT22;57920;54.796;9.430;2022-09-16T04:06:24;19.10;55.00
70460;DHT22;57920;54.796;9.430;2022-09-16T04:08:50;19.10;55.00
70460;DHT22;57920;54.796;9.430;2022-09-16T04:11:16;19.10;55.00
70460;DHT22;57920;54.796;9.430;2022-09-16T04:13:42;19.10;55.00
70460;DHT22;57920;54.796;9.430;2022-09-16T04:16:07;19.10;55.00
70460;DHT22;57920;54.796;9.430;2022-09-16T04:18:33;19.10;55.00
70460;DHT22;57920;54.796;9.430;2022-09-16T04:21:01;19.10;55.00
70460;DHT22;57920;54.796;9.430;2022-09-16T04:23:27;19.10;55.00
70460;DHT22;57920;54.796;9.430;2022-09-16T04:26:01;19.10;55.00
70460;DHT22;57920;54.796;9.430;2022-09-16T04:28:28;19.10;55.00
70460;DHT22;57920;54.796;9.430;2022-09-16T04:31:09;19.10;55.00
70460;DHT22;57920;54.796;9.430;2022-09-16T04:33:35;19.10;55.00
70460;DHT22;57920;54.796;9.430;2022-09-16T04:38:27;19.10;55.00
70460;DHT22;57920;54.796;9.430;2022-09-16T04:41:02;19.10;55.00
70460;DHT22;57920;54.796;9.430;2022-09-16T04:43:28;19.10;55.00
70460;DHT22;57920;54.796;9.430;2022-09-16T04:45:54;19.10;55.00
70460;DHT22;57920;54.796;9.430;2022-09-16T04:48:20;19.10;55.00
70460;DHT22;57920;54.796;9.430;2022-09-16T04:50:45;19.10;55.00
70460;DHT22;57920;54.796;9.430;2022-09-16T04:53:11;19.10;55.00
70460;DHT22;57920;54.796;9.430;2022-09-16T04:55:36;19.10;55.00
70460;DHT22;57920;54.796;9.430;2022-09-16T04:58:02;19.20;55.00
70460;DHT22;57920;54.796;9.430;2022-09-16T05:00:28;19.10;55.00
70460;DHT22;57920;54.796;9.430;2022-09-16T05:02:53;19.10;55.00
70460;DHT22;57920;54.796;9.430;2022-09-16T05:05:20;19.20;55.00
70460;DHT22;57920;54.796;9.430;2022-09-16T05:07:45;19.10;55.00
70460;DHT22;57920;54.796;9.430;2022-09-16T05:10:11;19.10;55.00
70460;DHT22;57920;54.796;9.430;2022-09-16T05:12:37;19.20;55.00
70460;DHT22;57920;54.796;9.430;2022-09-16T05:15:03;19.20;55.00
70460;DHT22;57920;54.796;9.430;2022-09-16T05:17:29;19.20;55.10
70460;DHT22;57920;54.796;9.430;2022-09-16T05:19:56;19.10;55.00
70460;DHT22;57920;54.796;9.430;2022-09-16T05:22:22;19.10;55.00
70460;DHT22;57920;54.796;9.430;2022-09-16T05:24:47;19.10;55.10
70460;DHT22;57920;54.796;9.430;2022-09-16T05:27:14;19.10;55.10
70460;DHT22;57920;54.796;9.430;2022-09-16T05:29:39;19.20;55.10
70460;DHT22;57920;54.796;9.430;2022-09-16T05:32:05;19.20;55.10
70460;DHT22;57920;54.796;9.430;2022-09-16T05:34:30;19.20;55.10
70460;DHT22;57920;54.796;9.430;2022-09-16T05:36:56;19.20;55.10
70460;DHT22;57920;54.796;9.430;2022-09-16T05:39:22;19.10;55.10
70460;DHT22;57920;54.796;9.430;2022-09-16T05:41:49;19.10;55.30
70460;DHT22;57920;54.796;9.430;2022-09-16T05:44:14;19.10;55.80
70460;DHT22;57920;54.796;9.430;2022-09-16T05:46:40;19.00;56.10
70460;DHT22;57920;54.796;9.430;2022-09-16T05:49:07;19.00;55.70
70460;DHT22;57920;54.796;9.430;2022-09-16T05:51:32;19.10;55.70
70460;DHT22;57920;54.796;9.430;2022-09-16T05:53:59;19.10;55.60
70460;DHT22;57920;54.796;9.430;2022-09-16T05:56:26;19.20;55.60
70460;DHT22;57920;54.796;9.430;2022-09-16T05:58:54;19.30;55.50
70460;DHT22;57920;54.796;9.430;2022-09-16T06:01:23;19.30;56.00
70460;DHT22;57920;54.796;9.430;2022-09-16T06:03:50;19.40;55.30
70460;DHT22;57920;54.796;9.430;2022-09-16T06:06:40;19.40;55.20
70460;DHT22;57920;54.796;9.430;2022-09-16T06:09:10;19.50;55.50
70460;DHT22;57920;54.796;9.430;2022-09-16T06:11:47;19.50;55.40
70460;DHT22;57920;54.796;9.430;2022-09-16T06:14:14;19.50;55.30
70460;DHT22;57920;54.796;9.430;2022-09-16T06:16:40;19.50;55.50
70460;DHT22;57920;54.796;9.430;2022-09-16T06:19:09;19.50;55.40
70460;DHT22;57920;54.796;9.430;2022-09-16T06:21:36;19.50;55.30
70460;DHT22;57920;54.796;9.430;2022-09-16T06:24:09;19.50;55.30
70460;DHT22;57920;54.796;9.430;2022-09-16T06:26:37;19.50;55.30
70460;DHT22;57920;54.796;9.430;2022-09-16T06:29:03;19.40;55.30
70460;DHT22;57920;54.796;9.430;2022-09-16T06:31:31;19.50;55.20
70460;DHT22;57920;54.796;9.430;2022-09-16T06:33:57;19.40;55.00
70460;DHT22;57920;54.796;9.430;2022-09-16T06:36:26;19.40;55.00
70460;DHT22;57920;54.796;9.430;2022-09-16T06:38:52;19.40;55.10
70460;DHT22;57920;54.796;9.430;2022-09-16T06:41:19;19.40;55.00
70460;DHT22;57920;54.796;9.430;2022-09-16T06:43:45;19.40;55.10
70460;DHT22;57920;54.796;9.430;2022-09-16T06:46:13;19.50;54.90
70460;DHT22;57920;54.796;9.430;2022-09-16T06:48:41;19.50;54.80
70460;DHT22;57920;54.796;9.430;2022-09-16T06:51:16;19.50;54.80
70460;DHT22;57920;54.796;9.430;2022-09-16T06:53:43;19.50;54.80
70460;DHT22;57920;54.796;9.430;2022-09-16T06:56:15;19.50;54.70
70460;DHT22;57920;54.796;9.430;2022-09-16T06:58:46;19.50;54.80
70460;DHT22;57920;54.796;9.430;2022-09-16T07:01:18;19.60;54.80
70460;DHT22;57920;54.796;9.430;2022-09-16T07:03:46;19.60;54.80
70460;DHT22;57920;54.796;9.430;2022-09-16T07:06:20;19.60;54.80
70460;DHT22;57920;54.796;9.430;2022-09-16T07:08:46;19.60;54.80
70460;DHT22;57920;54.796;9.430;2022-09-16T07:11:18;19.60;55.10
70460;DHT22;57920;54.796;9.430;2022-09-16T07:13:45;19.70;55.30
70460;DHT22;57920;54.796;9.430;2022-09-16T07:16:13;19.70;55.50
70460;DHT22;57920;54.796;9.430;2022-09-16T07:18:40;19.80;55.50
70460;DHT22;57920;54.796;9.430;2022-09-16T07:21:10;19.90;55.50
70460;DHT22;57920;54.796;9.430;2022-09-16T07:23:37;19.90;55.60
70460;DHT22;57920;54.796;9.430;2022-09-16T07:28:30;20.00;55.50
70460;DHT22;57920;54.796;9.430;2022-09-16T07:30:59;20.10;55.10
70460;DHT22;57920;54.796;9.430;2022-09-16T07:33:24;20.40;54.20
70460;DHT22;57920;54.796;9.430;2022-09-16T07:36:25;20.50;54.40
70460;DHT22;57920;54.796;9.430;2022-09-16T07:38:51;20.30;54.70
70460;DHT22;57920;54.796;9.430;2022-09-16T07:41:22;20.30;54.90
70460;DHT22;57920;54.796;9.430;2022-09-16T07:43:48;20.10;55.20
70460;DHT22;57920;54.796;9.430;2022-09-16T07:46:18;20.00;55.30
70460;DHT22;57920;54.796;9.430;2022-09-16T07:48:46;20.00;55.30
70460;DHT22;57920;54.796;9.430;2022-09-16T07:51:17;20.00;55.60
70460;DHT22;57920;54.796;9.430;2022-09-16T07:53:44;19.90;55.60
70460;DHT22;57920;54.796;9.430;2022-09-16T07:56:14;19.90;55.60
70460;DHT22;57920;54.796;9.430;2022-09-16T07:58:41;19.90;55.70
70460;DHT22;57920;54.796;9.430;2022-09-16T08:01:07;19.80;55.70
70460;DHT22;57920;54.796;9.430;2022-09-16T08:03:34;19.90;56.30
70460;DHT22;57920;54.796;9.430;2022-09-16T08:06:05;19.80;55.80
70460;DHT22;57920;54.796;9.430;2022-09-16T08:08:32;19.80;55.80
70460;DHT22;57920;54.796;9.430;2022-09-16T08:10:58;19.70;55.80
70460;DHT22;57920;54.796;9.430;2022-09-16T08:13:25;19.70;55.80
70460;DHT22;57920;54.796;9.430;2022-09-16T08:15:52;19.70;55.80
70460;DHT22;57920;54.796;9.430;2022-09-16T08:18:18;19.70;55.90
70460;DHT22;57920;54.796;9.430;2022-09-16T08:20:44;19.70;55.90
70460;DHT22;57920;54.796;9.430;2022-09-16T08:23:09;19.70;55.90
70460;DHT22;57920;54.796;9.430;2022-09-16T08:25:35;19.70;55.90
70460;DHT22;57920;54.796;9.430;2022-09-16T08:28:02;19.70;55.90
70460;DHT22;57920;54.796;9.430;2022-09-16T08:30:28;19.70;55.90
70460;DHT22;57920;54.796;9.430;2022-09-16T08:32:57;19.70;55.90
70460;DHT22;57920;54.796;9.430;2022-09-16T08:35:24;19.70;56.00
70460;DHT22;57920;54.796;9.430;2022-09-16T08:37:50;19.70;56.00
70460;DHT22;57920;54.796;9.430;2022-09-16T08:40:19;19.70;56.00
70460;DHT22;57920;54.796;9.430;2022-09-16T08:45:57;19.70;55.90
70460;DHT22;57920;54.796;9.430;2022-09-16T08:48:56;19.70;56.00
70460;DHT22;57920;54.796;9.430;2022-09-16T08:51:23;19.70;56.00
70460;DHT22;57920;54.796;9.430;2022-09-16T08:53:58;19.70;55.90
70460;DHT22;57920;54.796;9.430;2022-09-16T08:56:26;19.70;55.90
70460;DHT22;57920;54.796;9.430;2022-09-16T08:58:58;19.70;56.00
70460;DHT22;57920;54.796;9.430;2022-09-16T09:01:42;19.70;56.00
70460;DHT22;57920;54.796;9.430;2022-09-16T09:04:11;19.70;56.00
70460;DHT22;57920;54.796;9.430;2022-09-16T09:15:29;19.70;55.80
70460;DHT22;57920;54.796;9.430;2022-09-16T09:18:16;19.80;55.90
70460;DHT22;57920;54.796;9.430;2022-09-16T09:23:55;19.90;56.10
70460;DHT22;57920;54.796;9.430;2022-09-16T09:31:57;20.00;56.00
70460;DHT22;57920;54.796;9.430;2022-09-16T09:40:44;20.10;56.10
70460;DHT22;57920;54.796;9.430;2022-09-16T09:46:16;20.00;56.00
70460;DHT22;57920;54.796;9.430;2022-09-16T09:48:57;20.00;56.10
70460;DHT22;57920;54.796;9.430;2022-09-16T09:51:33;20.00;56.00
70460;DHT22;57920;54.796;9.430;2022-09-16T09:54:18;20.00;56.10
70460;DHT22;57920;54.796;9.430;2022-09-16T09:56:47;20.00;56.10
70460;DHT22;57920;54.796;9.430;2022-09-16T09:59:30;20.00;56.10
70460;DHT22;57920;54.796;9.430;2022-09-16T10:01:57;20.10;56.10
70460;DHT22;57920;54.796;9.430;2022-09-16T10:04:24;20.10;56.00
70460;DHT22;57920;54.796;9.430;2022-09-16T10:06:52;20.10;56.00
70460;DHT22;57920;54.796;9.430;2022-09-16T10:09:19;20.10;55.90
70460;DHT22;57920;54.796;9.430;2022-09-16T10:11:54;20.00;56.00
70460;DHT22;57920;54.796;9.430;2022-09-16T10:14:30;20.10;55.90
70460;DHT22;57920;54.796;9.430;2022-09-16T10:17:00;20.10;56.00
70460;DHT22;57920;54.796;9.430;2022-09-16T10:19:29;20.10;56.00
70460;DHT22;57920;54.796;9.430;2022-09-16T10:22:08;20.00;56.00
70460;DHT22;57920;54.796;9.430;2022-09-16T10:24:40;20.00;56.00
70460;DHT22;57920;54.796;9.430;2022-09-16T10:27:27;20.00;56.10
70460;DHT22;57920;54.796;9.430;2022-09-16T10:32:54;20.00;56.10
70460;DHT22;57920;54.796;9.430;2022-09-16T10:35:35;20.00;56.10
70460;DHT22;57920;54.796;9.430;2022-09-16T10:38:15;20.00;56.10
70460;DHT22;57920;54.796;9.430;2022-09-16T10:40:56;20.00;56.00
70460;DHT22;57920;54.796;9.430;2022-09-16T10:43:26;20.00;56.10
70460;DHT22;57920;54.796;9.430;2022-09-16T10:45:53;20.00;56.20
70460;DHT22;57920;54.796;9.430;2022-09-16T10:48:22;20.00;56.50
70460;DHT22;57920;54.796;9.430;2022-09-16T10:53:35;20.10;56.40
70460;DHT22;57920;54.796;9.430;2022-09-16T10:56:04;20.10;56.40
70460;DHT22;57920;54.796;9.430;2022-09-16T10:58:30;20.00;56.40
70460;DHT22;57920;54.796;9.430;2022-09-16T11:17:14;20.00;56.30
70460;DHT22;57920;54.796;9.430;2022-09-16T11:22:54;20.00;56.40
70460;DHT22;57920;54.796;9.430;2022-09-16T11:25:43;20.00;56.50
70460;DHT22;57920;54.796;9.430;2022-09-16T11:31:10;20.00;56.60
70460;DHT22;57920;54.796;9.430;2022-09-16T11:50:51;20.00;56.70
70460;DHT22;57920;54.796;9.430;2022-09-16T11:53:56;20.00;56.80
70460;DHT22;57920;54.796;9.430;2022-09-16T12:01:47;20.00;56.80
70460;DHT22;57920;54.796;9.430;2022-09-16T12:04:40;20.00;56.80
70460;DHT22;57920;54.796;9.430;2022-09-16T12:07:23;20.00;57.20
70460;DHT22;57920;54.796;9.430;2022-09-16T12:09:54;20.00;57.10
70460;DHT22;57920;54.796;9.430;2022-09-16T12:12:27;20.00;57.10
70460;DHT22;57920;54.796;9.430;2022-09-16T12:14:57;20.00;57.00
70460;DHT22;57920;54.796;9.430;2022-09-16T12:17:27;20.00;56.90
70460;DHT22;57920;54.796;9.430;2022-09-16T12:20:14;20.00;56.90
70460;DHT22;57920;54.796;9.430;2022-09-16T12:22:48;20.00;56.90
70460;DHT22;57920;54.796;9.430;2022-09-16T12:25:20;20.00;56.90
70460;DHT22;57920;54.796;9.430;2022-09-16T12:27:50;20.00;56.90
70460;DHT22;57920;54.796;9.430;2022-09-16T12:30:22;20.00;56.90
70460;DHT22;57920;54.796;9.430;2022-09-16T12:33:02;20.00;56.90
70460;DHT22;57920;54.796;9.430;2022-09-16T12:35:37;20.00;56.90
70460;DHT22;57920;54.796;9.430;2022-09-16T12:38:03;20.00;56.90
70460;DHT22;57920;54.796;9.430;2022-09-16T12:40:51;20.00;56.90
70460;DHT22;57920;54.796;9.430;2022-09-16T12:46:08;20.00;56.90
70460;DHT22;57920;54.796;9.430;2022-09-16T13:00:02;20.00;57.10
70460;DHT22;57920;54.796;9.430;2022-09-16T13:02:40;20.00;57.10
70460;DHT22;57920;54.796;9.430;2022-09-16T13:05:21;20.00;57.10
70460;DHT22;57920;54.796;9.430;2022-09-16T13:07:51;20.00;57.10
70460;DHT22;57920;54.796;9.430;2022-09-16T13:12:52;20.00;57.00
70460;DHT22;57920;54.796;9.430;2022-09-16T13:15:28;20.00;57.00
70460;DHT22;57920;54.796;9.430;2022-09-16T13:17:54;20.00;57.00
70460;DHT22;57920;54.796;9.430;2022-09-16T13:20:34;20.00;57.00
70460;DHT22;57920;54.796;9.430;2022-09-16T13:23:12;20.00;57.00
70460;DHT22;57920;54.796;9.430;2022-09-16T13:31:15;20.10;57.00
70460;DHT22;57920;54.796;9.430;2022-09-16T13:38:52;20.00;57.10
70460;DHT22;57920;54.796;9.430;2022-09-16T13:41:36;20.10;57.10
70460;DHT22;57920;54.796;9.430;2022-09-16T13:49:55;20.10;56.90
70460;DHT22;57920;54.796;9.430;2022-09-16T13:52:30;20.10;56.90
70460;DHT22;57920;54.796;9.430;2022-09-16T13:54:58;20.10;56.90
70460;DHT22;57920;54.796;9.430;2022-09-16T13:57:31;20.10;56.90
70460;DHT22;57920;54.796;9.430;2022-09-16T14:00:20;20.10;56.90
70460;DHT22;57920;54.796;9.430;2022-09-16T14:08:36;20.10;57.00
70460;DHT22;57920;54.796;9.430;2022-09-16T14:13:54;20.00;57.10
70460;DHT22;57920;54.796;9.430;2022-09-16T14:16:25;20.00;57.20
70460;DHT22;57920;54.796;9.430;2022-09-16T14:18:56;20.00;57.20
70460;DHT22;57920;54.796;9.430;2022-09-16T14:21:25;20.00;57.30
70460;DHT22;57920;54.796;9.430;2022-09-16T14:23:51;20.00;57.20
70460;DHT22;57920;54.796;9.430;2022-09-16T14:26:22;20.00;57.30
70460;DHT22;57920;54.796;9.430;2022-09-16T14:28:49;20.00;57.30
70460;DHT22;57920;54.796;9.430;2022-09-16T14:31:23;20.00;57.30
70460;DHT22;57920;54.796;9.430;2022-09-16T14:34:03;20.00;57.30
70460;DHT22;57920;54.796;9.430;2022-09-16T14:36:34;20.00;57.40
70460;DHT22;57920;54.796;9.430;2022-09-16T14:39:03;20.00;57.40
70460;DHT22;57920;54.796;9.430;2022-09-16T14:41:38;19.90;57.40
70460;DHT22;57920;54.796;9.430;2022-09-16T14:47:03;19.90;57.50
70460;DHT22;57920;54.796;9.430;2022-09-16T14:49:29;19.90;57.50
70460;DHT22;57920;54.796;9.430;2022-09-16T14:51:58;19.90;57.50
70460;DHT22;57920;54.796;9.430;2022-09-16T14:54:26;19.90;57.50
70460;DHT22;57920;54.796;9.430;2022-09-16T14:57:06;19.90;57.50
70460;DHT22;57920;54.796;9.430;2022-09-16T14:59:39;19.90;57.60
70460;DHT22;57920;54.796;9.430;2022-09-16T15:02:35;19.90;57.50
70460;DHT22;57920;54.796;9.430;2022-09-16T15:07:36;19.80;57.60
70460;DHT22;57920;54.796;9.430;2022-09-16T15:10:22;19.80;57.60
70460;DHT22;57920;54.796;9.430;2022-09-16T15:12:52;19.80;57.60
70460;DHT22;57920;54.796;9.430;2022-09-16T15:15:23;19.80;57.70
70460;DHT22;57920;54.796;9.430;2022-09-16T15:17:59;19.80;57.60
70460;DHT22;57920;54.796;9.430;2022-09-16T15:20:30;19.80;57.60
70460;DHT22;57920;54.796;9.430;2022-09-16T15:22:57;19.70;57.60
70460;DHT22;57920;54.796;9.430;2022-09-16T15:25:25;19.80;57.70
70460;DHT22;57920;54.796;9.430;2022-09-16T15:28:06;19.70;57.70
70460;DHT22;57920;54.796;9.430;2022-09-16T15:30:32;19.70;57.60
70460;DHT22;57920;54.796;9.430;2022-09-16T15:32:58;19.70;57.70
70460;DHT22;57920;54.796;9.430;2022-09-16T15:35:28;19.70;57.70
70460;DHT22;57920;54.796;9.430;2022-09-16T15:37:56;19.70;57.70
70460;DHT22;57920;54.796;9.430;2022-09-16T15:45:34;19.70;57.70
70460;DHT22;57920;54.796;9.430;2022-09-16T15:48:04;19.70;57.70
70460;DHT22;57920;54.796;9.430;2022-09-16T15:50:39;19.70;57.70
70460;DHT22;57920;54.796;9.430;2022-09-16T15:58:45;19.70;57.60
70460;DHT22;57920;54.796;9.430;2022-09-16T16:01:19;19.70;57.60
70460;DHT22;57920;54.796;9.430;2022-09-16T16:03:59;19.70;57.60
70460;DHT22;57920;54.796;9.430;2022-09-16T16:06:51;19.70;57.60
70460;DHT22;57920;54.796;9.430;2022-09-16T16:11:56;19.70;57.60
70460;DHT22;57920;54.796;9.430;2022-09-16T16:14:23;19.70;57.60
70460;DHT22;57920;54.796;9.430;2022-09-16T16:16:50;19.70;57.60
70460;DHT22;57920;54.796;9.430;2022-09-16T16:19:16;19.70;57.80
70460;DHT22;57920;54.796;9.430;2022-09-16T16:21:42;19.70;57.80
70460;DHT22;57920;54.796;9.430;2022-09-16T16:24:10;19.70;57.90
70460;DHT22;57920;54.796;9.430;2022-09-16T16:26:36;19.70;57.70
70460;DHT22;57920;54.796;9.430;2022-09-16T16:29:02;19.70;57.60
70460;DHT22;57920;54.796;9.430;2022-09-16T16:31:27;19.70;57.60
70460;DHT22;57920;54.796;9.430;2022-09-16T16:33:53;19.70;57.60
70460;DHT22;57920;54.796;9.430;2022-09-16T16:36:18;19.70;57.60
70460;DHT22;57920;54.796;9.430;2022-09-16T16:38:46;19.70;57.50
70460;DHT22;57920;54.796;9.430;2022-09-16T16:41:21;19.70;57.60
70460;DHT22;57920;54.796;9.430;2022-09-16T16:43:47;19.70;57.60
70460;DHT22;57920;54.796;9.430;2022-09-16T16:46:13;19.70;57.60
70460;DHT22;57920;54.796;9.430;2022-09-16T16:48:39;19.70;57.60
70460;DHT22;57920;54.796;9.430;2022-09-16T16:51:11;19.70;57.60
70460;DHT22;57920;54.796;9.430;2022-09-16T16:53:37;19.70;57.60
70460;DHT22;57920;54.796;9.430;2022-09-16T16:56:08;19.70;57.60
70460;DHT22;57920;54.796;9.430;2022-09-16T16:58:34;19.70;57.60
70460;DHT22;57920;54.796;9.430;2022-09-16T17:03:37;19.70;57.60
70460;DHT22;57920;54.796;9.430;2022-09-16T17:06:03;19.70;57.70
70460;DHT22;57920;54.796;9.430;2022-09-16T17:08:30;19.70;57.60
70460;DHT22;57920;54.796;9.430;2022-09-16T17:11:13;19.70;57.60
70460;DHT22;57920;54.796;9.430;2022-09-16T17:13:42;19.70;57.60
70460;DHT22;57920;54.796;9.430;2022-09-16T17:16:11;19.70;57.60
70460;DHT22;57920;54.796;9.430;2022-09-16T17:18:38;19.70;57.70
70460;DHT22;57920;54.796;9.430;2022-09-16T17:21:12;19.70;57.70
70460;DHT22;57920;54.796;9.430;2022-09-16T17:23:38;19.70;57.70
70460;DHT22;57920;54.796;9.430;2022-09-16T17:26:05;19.70;57.70
70460;DHT22;57920;54.796;9.430;2022-09-16T17:28:33;19.70;57.60
70460;DHT22;57920;54.796;9.430;2022-09-16T17:30:59;19.70;57.60
70460;DHT22;57920;54.796;9.430;2022-09-16T17:33:25;19.70;57.70
70460;DHT22;57920;54.796;9.430;2022-09-16T17:36:02;19.70;57.70
70460;DHT22;57920;54.796;9.430;2022-09-16T17:38:29;19.70;57.60
70460;DHT22;57920;54.796;9.430;2022-09-16T17:41:07;19.70;57.70
70460;DHT22;57920;54.796;9.430;2022-09-16T17:43:34;19.70;57.60
70460;DHT22;57920;54.796;9.430;2022-09-16T17:46:02;19.70;57.70
70460;DHT22;57920;54.796;9.430;2022-09-16T17:48:28;19.70;57.70
70460;DHT22;57920;54.796;9.430;2022-09-16T17:50:56;19.70;57.70
70460;DHT22;57920;54.796;9.430;2022-09-16T17:53:22;19.70;57.70
70460;DHT22;57920;54.796;9.430;2022-09-16T17:55:48;19.70;57.70
70460;DHT22;57920;54.796;9.430;2022-09-16T17:58:14;19.70;57.70
70460;DHT22;57920;54.796;9.430;2022-09-16T18:00:41;19.70;57.80
70460;DHT22;57920;54.796;9.430;2022-09-16T18:03:07;19.70;57.80
70460;DHT22;57920;54.796;9.430;2022-09-16T18:05:34;19.70;57.80
70460;DHT22;57920;54.796;9.430;2022-09-16T18:08:00;19.70;57.80
70460;DHT22;57920;54.796;9.430;2022-09-16T18:10:25;19.70;57.80
70460;DHT22;57920;54.796;9.430;2022-09-16T18:12:52;19.70;57.80
70460;DHT22;57920;54.796;9.430;2022-09-16T18:15:18;19.60;57.80
70460;DHT22;57920;54.796;9.430;2022-09-16T18:17:44;19.60;57.80
70460;DHT22;57920;54.796;9.430;2022-09-16T18:20:10;19.60;57.80
70460;DHT22;57920;54.796;9.430;2022-09-16T18:22:36;19.60;57.90
70460;DHT22;57920;54.796;9.430;2022-09-16T18:25:04;19.60;57.80
70460;DHT22;57920;54.796;9.430;2022-09-16T18:27:30;19.60;57.90
70460;DHT22;57920;54.796;9.430;2022-09-16T18:29:55;19.50;57.90
70460;DHT22;57920;54.796;9.430;2022-09-16T18:32:22;19.50;57.90
70460;DHT22;57920;54.796;9.430;2022-09-16T18:34:48;19.50;57.90
70460;DHT22;57920;54.796;9.430;2022-09-16T18:37:14;19.50;57.90
70460;DHT22;57920;54.796;9.430;2022-09-16T18:39:39;19.50;57.90
70460;DHT22;57920;54.796;9.430;2022-09-16T18:42:05;19.50;57.90
70460;DHT22;57920;54.796;9.430;2022-09-16T18:44:30;19.50;57.90
70460;DHT22;57920;54.796;9.430;2022-09-16T18:46:56;19.50;57.90
70460;DHT22;57920;54.796;9.430;2022-09-16T18:49:22;19.50;57.90
70460;DHT22;57920;54.796;9.430;2022-09-16T18:51:51;19.50;57.90
70460;DHT22;57920;54.796;9.430;2022-09-16T18:54:20;19.50;58.00
70460;DHT22;57920;54.796;9.430;2022-09-16T18:56:49;19.50;57.90